sensor_id;sensor_type;location;lat;lon;timestamp;P1;durP1;ratioP1;P2;durP2;ratioP2
2972;SDS011;1496;51.404;7.232;2023-03-20T00:02:05;39.43;;;18.07;;
2972;SDS011;1496;51.404;7.232;2023-03-20T00:04:33;47.17;;;17.60;;
2972;SDS011;1496;51.404;7.232;2023-03-20T00:07:00;41.33;;;18.20;;
2972;SDS011;1496;51.404;7.232;2023-03-20T00:09:28;42.67;;;18.90;;
2972;SDS011;1496;51.404;7.232;2023-03-20T00:11:55;43.10;;;19.83;;
2972;SDS011;1496;51.404;7.232;2023-03-20T00:14:22;43.63;;;20.10;;
2972;SDS011;1496;51.404;7.232;2023-03-20T00:16:49;43.97;;;18.87;;
2972;SDS011;1496;51.404;7.232;2023-03-20T00:21:48;43.10;;;17.73;;
2972;SDS011;1496;51.404;7.232;2023-03-20T00:24:15;41.47;;;19.37;;
2972;SDS011;1496;51.404;7.232;2023-03-20T00:26:42;41.93;;;18.00;;
2972;SDS011;1496;51.404;7.232;2023-03-20T00:29:14;44.77;;;20.97;;
2972;SDS011;1496;51.404;7.232;2023-03-20T00:31:47;44.63;;;20.23;;
2972;SDS011;1496;51.404;7.232;2023-03-20T00:34:16;42.93;;;20.27;;
2972;SDS011;1496;51.404;7.232;2023-03-20T00:36:45;45.57;;;21.10;;
2972;SDS011;1496;51.404;7.232;2023-03-20T00:39:13;42.77;;;19.67;;
2972;SDS011;1496;51.404;7.232;2023-03-20T00:41:42;41.60;;;18.70;;
2972;SDS011;1496;51.404;7.232;2023-03-20T00:44:27;42.07;;;18.33;;
2972;SDS011;1496;51.404;7.232;2023-03-20T00:47:08;42.23;;;19.57;;
2972;SDS011;1496;51.404;7.232;2023-03-20T00:49:50;42.97;;;18.30;;
2972;SDS011;1496;51.404;7.232;2023-03-20T00:52:19;43.20;;;20.57;;
2972;SDS011;1496;51.404;7.232;2023-03-20T00:54:46;40.97;;;18.83;;
2972;SDS011;1496;51.404;7.232;2023-03-20T00:57:15;38.60;;;19.03;;
2972;SDS011;1496;51.404;7.232;2023-03-20T01:00:34;41.17;;;18.20;;
2972;SDS011;1496;51.404;7.232;2023-03-20T01:02:44;36.30;;;18.20;;
2972;SDS011;1496;51.404;7.232;2023-03-20T01:05:10;33.33;;;16.53;;
2972;SDS011;1496;51.404;7.232;2023-03-20T01:07:38;29.17;;;15.37;;
2972;SDS011;1496;51.404;7.232;2023-03-20T01:10:05;30.50;;;15.30;;
2972;SDS011;1496;51.404;7.232;2023-03-20T01:12:33;30.27;;;14.60;;
2972;SDS011;1496;51.404;7.232;2023-03-20T01:15:00;31.33;;;13.80;;
2972;SDS011;1496;51.404;7.232;2023-03-20T01:17:27;27.40;;;14.17;;
2972;SDS011;1496;51.404;7.232;2023-03-20T01:19:54;25.77;;;13.57;;
2972;SDS011;1496;51.404;7.232;2023-03-20T01:22:22;31.83;;;15.80;;
2972;SDS011;1496;51.404;7.232;2023-03-20T01:24:49;27.73;;;13.47;;
2972;SDS011;1496;51.404;7.232;2023-03-20T01:27:17;27.67;;;14.47;;
2972;SDS011;1496;51.404;7.232;2023-03-20T01:29:45;26.70;;;14.40;;
2972;SDS011;1496;51.404;7.232;2023-03-20T01:32:16;25.77;;;14.27;;
2972;SDS011;1496;51.404;7.232;2023-03-20T01:34:48;26.23;;;14.73;;
2972;SDS011;1496;51.404;7.232;2023-03-20T01:37:17;28.23;;;15.00;;
2972;SDS011;1496;51.404;7.232;2023-03-20T01:39:50;26.93;;;12.67;;
2972;SDS011;1496;51.404;7.232;2023-03-20T01:42:17;25.33;;;12.37;;
2972;SDS011;1496;51.404;7.232;2023-03-20T01:44:44;21.03;;;10.67;;
2972;SDS011;1496;51.404;7.232;2023-03-20T01:47:22;21.80;;;11.33;;
2972;SDS011;1496;51.404;7.232;2023-03-20T01:50:17;28.43;;;11.40;;
2972;SDS011;1496;51.404;7.232;2023-03-20T01:52:50;20.63;;;10.13;;
2972;SDS011;1496;51.404;7.232;2023-03-20T01:55:21;22.80;;;9.40;;
2972;SDS011;1496;51.404;7.232;2023-03-20T01:57:55;22.90;;;10.17;;
2972;SDS011;1496;51.404;7.232;2023-03-20T02:00:25;25.90;;;10.57;;
2972;SDS011;1496;51.404;7.232;2023-03-20T02:02:52;25.83;;;10.13;;
2972;SDS011;1496;51.404;7.232;2023-03-20T02:05:38;31.77;;;12.47;;
2972;SDS011;1496;51.404;7.232;2023-03-20T02:08:26;30.67;;;12.20;;
2972;SDS011;1496;51.404;7.232;2023-03-20T02:11:00;30.27;;;12.30;;
2972;SDS011;1496;51.404;7.232;2023-03-20T02:13:30;29.07;;;11.37;;
2972;SDS011;1496;51.404;7.232;2023-03-20T02:16:00;27.30;;;11.10;;
2972;SDS011;1496;51.404;7.232;2023-03-20T02:19:06;29.23;;;11.30;;
2972;SDS011;1496;51.404;7.232;2023-03-20T02:33:47;33.00;;;11.10;;
2972;SDS011;1496;51.404;7.232;2023-03-20T02:36:39;29.40;;;10.57;;
2972;SDS011;1496;51.404;7.232;2023-03-20T02:39:16;30.70;;;11.30;;
2972;SDS011;1496;51.404;7.232;2023-03-20T02:41:56;28.53;;;11.67;;
2972;SDS011;1496;51.404;7.232;2023-03-20T02:47:52;27.67;;;9.70;;
2972;SDS011;1496;51.404;7.232;2023-03-20T02:53:51;28.90;;;9.60;;
2972;SDS011;1496;51.404;7.232;2023-03-20T02:57:19;30.80;;;11.47;;
2972;SDS011;1496;51.404;7.232;2023-03-20T03:02:23;26.47;;;9.70;;
2972;SDS011;1496;51.404;7.232;2023-03-20T03:05:15;24.87;;;8.40;;
2972;SDS011;1496;51.404;7.232;2023-03-20T03:07:47;26.67;;;9.53;;
2972;SDS011;1496;51.404;7.232;2023-03-20T03:10:18;24.77;;;8.87;;
2972;SDS011;1496;51.404;7.232;2023-03-20T03:12:55;27.90;;;9.77;;
2972;SDS011;1496;51.404;7.232;2023-03-20T03:15:31;25.77;;;9.50;;
2972;SDS011;1496;51.404;7.232;2023-03-20T03:18:02;33.47;;;9.97;;
2972;SDS011;1496;51.404;7.232;2023-03-20T03:20:35;23.70;;;8.80;;
2972;SDS011;1496;51.404;7.232;2023-03-20T03:23:04;26.87;;;9.10;;
2972;SDS011;1496;51.404;7.232;2023-03-20T03:25:33;25.23;;;9.27;;
2972;SDS011;1496;51.404;7.232;2023-03-20T03:30:43;24.20;;;8.93;;
2972;SDS011;1496;51.404;7.232;2023-03-20T03:33:24;24.70;;;8.87;;
2972;SDS011;1496;51.404;7.232;2023-03-20T03:36:08;27.10;;;9.63;;
2972;SDS011;1496;51.404;7.232;2023-03-20T03:39:13;27.10;;;9.17;;
2972;SDS011;1496;51.404;7.232;2023-03-20T03:41:51;26.87;;;8.70;;
2972;SDS011;1496;51.404;7.232;2023-03-20T03:47:31;25.77;;;8.67;;
2972;SDS011;1496;51.404;7.232;2023-03-20T03:52:41;27.73;;;9.37;;
2972;SDS011;1496;51.404;7.232;2023-03-20T03:55:13;36.37;;;10.20;;
2972;SDS011;1496;51.404;7.232;2023-03-20T03:58:02;27.20;;;8.90;;
2972;SDS011;1496;51.404;7.232;2023-03-20T04:00:35;28.57;;;8.50;;
2972;SDS011;1496;51.404;7.232;2023-03-20T04:03:06;28.90;;;9.50;;
2972;SDS011;1496;51.404;7.232;2023-03-20T04:05:35;29.50;;;10.13;;
2972;SDS011;1496;51.404;7.232;2023-03-20T04:08:07;29.87;;;9.60;;
2972;SDS011;1496;51.404;7.232;2023-03-20T04:10:35;27.13;;;9.40;;
2972;SDS011;1496;51.404;7.232;2023-03-20T04:13:01;30.03;;;10.70;;
2972;SDS011;1496;51.404;7.232;2023-03-20T04:15:31;29.50;;;10.30;;
2972;SDS011;1496;51.404;7.232;2023-03-20T04:17:58;30.20;;;11.13;;
2972;SDS011;1496;51.404;7.232;2023-03-20T04:20:25;27.00;;;9.37;;
2972;SDS011;1496;51.404;7.232;2023-03-20T04:22:53;31.97;;;9.60;;
2972;SDS011;1496;51.404;7.232;2023-03-20T04:25:23;31.97;;;9.77;;
2972;SDS011;1496;51.404;7.232;2023-03-20T04:27:55;28.90;;;9.80;;
2972;SDS011;1496;51.404;7.232;2023-03-20T04:30:41;31.53;;;11.40;;
2972;SDS011;1496;51.404;7.232;2023-03-20T04:33:23;30.97;;;10.40;;
2972;SDS011;1496;51.404;7.232;2023-03-20T04:35:59;34.07;;;10.43;;
2972;SDS011;1496;51.404;7.232;2023-03-20T04:38:25;31.57;;;10.53;;
2972;SDS011;1496;51.404;7.232;2023-03-20T04:40:53;29.40;;;10.60;;
2972;SDS011;1496;51.404;7.232;2023-03-20T04:43:20;30.40;;;11.10;;
2972;SDS011;1496;51.404;7.232;2023-03-20T04:45:47;32.43;;;12.40;;
2972;SDS011;1496;51.404;7.232;2023-03-20T04:48:14;32.57;;;11.10;;
2972;SDS011;1496;51.404;7.232;2023-03-20T04:50:41;32.50;;;12.27;;
2972;SDS011;1496;51.404;7.232;2023-03-20T04:53:11;32.57;;;12.27;;
2972;SDS011;1496;51.404;7.232;2023-03-20T04:55:40;32.70;;;12.70;;
2972;SDS011;1496;51.404;7.232;2023-03-20T04:58:09;32.03;;;12.20;;
2972;SDS011;1496;51.404;7.232;2023-03-20T05:00:37;33.40;;;10.77;;
2972;SDS011;1496;51.404;7.232;2023-03-20T05:03:04;31.57;;;11.43;;
2972;SDS011;1496;51.404;7.232;2023-03-20T05:05:31;30.30;;;11.30;;
2972;SDS011;1496;51.404;7.232;2023-03-20T05:08:03;34.23;;;13.00;;
2972;SDS011;1496;51.404;7.232;2023-03-20T05:10:34;34.37;;;11.20;;
2972;SDS011;1496;51.404;7.232;2023-03-20T05:13:21;36.03;;;11.77;;
2972;SDS011;1496;51.404;7.232;2023-03-20T05:16:23;32.50;;;11.40;;
2972;SDS011;1496;51.404;7.232;2023-03-20T05:19:04;36.00;;;13.20;;
2972;SDS011;1496;51.404;7.232;2023-03-20T05:21:49;37.20;;;13.70;;
2972;SDS011;1496;51.404;7.232;2023-03-20T05:24:31;33.37;;;13.50;;
2972;SDS011;1496;51.404;7.232;2023-03-20T05:27:10;33.80;;;10.83;;
2972;SDS011;1496;51.404;7.232;2023-03-20T05:29:58;32.20;;;11.60;;
2972;SDS011;1496;51.404;7.232;2023-03-20T05:32:31;29.73;;;10.90;;
2972;SDS011;1496;51.404;7.232;2023-03-20T05:35:29;29.00;;;10.87;;
2972;SDS011;1496;51.404;7.232;2023-03-20T05:38:13;31.03;;;12.43;;
2972;SDS011;1496;51.404;7.232;2023-03-20T05:40:58;30.77;;;11.00;;
2972;SDS011;1496;51.404;7.232;2023-03-20T05:43:42;30.27;;;11.87;;
2972;SDS011;1496;51.404;7.232;2023-03-20T05:46:28;30.67;;;11.97;;
2972;SDS011;1496;51.404;7.232;2023-03-20T05:49:05;32.27;;;11.60;;
2972;SDS011;1496;51.404;7.232;2023-03-20T05:51:52;30.27;;;12.30;;
2972;SDS011;1496;51.404;7.232;2023-03-20T05:54:37;31.13;;;12.10;;
2972;SDS011;1496;51.404;7.232;2023-03-20T05:57:16;32.43;;;12.60;;
2972;SDS011;1496;51.404;7.232;2023-03-20T06:00:02;32.80;;;12.70;;
2972;SDS011;1496;51.404;7.232;2023-03-20T06:02:40;34.07;;;13.00;;
2972;SDS011;1496;51.404;7.232;2023-03-20T06:05:33;32.10;;;12.20;;
2972;SDS011;1496;51.404;7.232;2023-03-20T06:08:00;34.33;;;12.33;;
2972;SDS011;1496;51.404;7.232;2023-03-20T06:10:27;35.63;;;12.20;;
2972;SDS011;1496;51.404;7.232;2023-03-20T06:12:56;38.03;;;13.03;;
2972;SDS011;1496;51.404;7.232;2023-03-20T06:15:27;44.70;;;13.60;;
2972;SDS011;1496;51.404;7.232;2023-03-20T06:18:00;38.30;;;13.47;;
2972;SDS011;1496;51.404;7.232;2023-03-20T06:20:27;37.13;;;12.10;;
2972;SDS011;1496;51.404;7.232;2023-03-20T06:22:55;34.13;;;12.57;;
2972;SDS011;1496;51.404;7.232;2023-03-20T06:25:24;33.10;;;11.70;;
2972;SDS011;1496;51.404;7.232;2023-03-20T06:27:50;40.27;;;11.93;;
2972;SDS011;1496;51.404;7.232;2023-03-20T06:30:18;34.80;;;12.30;;
2972;SDS011;1496;51.404;7.232;2023-03-20T06:32:47;30.57;;;12.10;;
2972;SDS011;1496;51.404;7.232;2023-03-20T06:35:15;35.70;;;12.90;;
2972;SDS011;1496;51.404;7.232;2023-03-20T06:37:46;35.30;;;12.67;;
2972;SDS011;1496;51.404;7.232;2023-03-20T06:40:18;35.87;;;12.63;;
2972;SDS011;1496;51.404;7.232;2023-03-20T06:42:47;33.83;;;12.13;;
2972;SDS011;1496;51.404;7.232;2023-03-20T06:45:15;31.50;;;10.97;;
2972;SDS011;1496;51.404;7.232;2023-03-20T06:47:55;35.10;;;11.67;;
2972;SDS011;1496;51.404;7.232;2023-03-20T06:50:23;32.20;;;11.30;;
2972;SDS011;1496;51.404;7.232;2023-03-20T06:52:52;29.03;;;11.43;;
2972;SDS011;1496;51.404;7.232;2023-03-20T06:55:35;33.50;;;11.90;;
2972;SDS011;1496;51.404;7.232;2023-03-20T06:58:03;34.37;;;11.97;;
2972;SDS011;1496;51.404;7.232;2023-03-20T07:00:32;31.50;;;11.47;;
2972;SDS011;1496;51.404;7.232;2023-03-20T07:03:02;34.87;;;13.03;;
2972;SDS011;1496;51.404;7.232;2023-03-20T07:05:30;36.93;;;11.20;;
2972;SDS011;1496;51.404;7.232;2023-03-20T07:08:00;31.50;;;11.10;;
2972;SDS011;1496;51.404;7.232;2023-03-20T07:10:26;33.93;;;11.10;;
2972;SDS011;1496;51.404;7.232;2023-03-20T07:12:54;28.83;;;9.93;;
2972;SDS011;1496;51.404;7.232;2023-03-20T07:15:21;30.57;;;10.60;;
2972;SDS011;1496;51.404;7.232;2023-03-20T07:17:49;29.73;;;10.70;;
2972;SDS011;1496;51.404;7.232;2023-03-20T07:20:16;32.53;;;11.40;;
2972;SDS011;1496;51.404;7.232;2023-03-20T07:22:46;28.77;;;8.90;;
2972;SDS011;1496;51.404;7.232;2023-03-20T07:25:22;29.80;;;10.50;;
2972;SDS011;1496;51.404;7.232;2023-03-20T07:27:50;30.23;;;9.23;;
2972;SDS011;1496;51.404;7.232;2023-03-20T07:30:20;26.83;;;8.33;;
2972;SDS011;1496;51.404;7.232;2023-03-20T07:32:47;26.80;;;8.10;;
2972;SDS011;1496;51.404;7.232;2023-03-20T07:35:14;23.47;;;7.13;;
2972;SDS011;1496;51.404;7.232;2023-03-20T07:37:42;30.33;;;8.23;;
2972;SDS011;1496;51.404;7.232;2023-03-20T07:40:09;27.37;;;9.27;;
2972;SDS011;1496;51.404;7.232;2023-03-20T07:42:48;25.93;;;7.87;;
2972;SDS011;1496;51.404;7.232;2023-03-20T07:45:48;24.47;;;8.30;;
2972;SDS011;1496;51.404;7.232;2023-03-20T07:48:18;28.80;;;8.90;;
2972;SDS011;1496;51.404;7.232;2023-03-20T07:50:46;23.60;;;8.73;;
2972;SDS011;1496;51.404;7.232;2023-03-20T07:53:14;23.03;;;7.67;;
2972;SDS011;1496;51.404;7.232;2023-03-20T07:55:42;18.83;;;7.40;;
2972;SDS011;1496;51.404;7.232;2023-03-20T07:58:09;16.07;;;7.50;;
2972;SDS011;1496;51.404;7.232;2023-03-20T08:00:38;16.60;;;8.13;;
2972;SDS011;1496;51.404;7.232;2023-03-20T08:03:05;10.20;;;6.10;;
2972;SDS011;1496;51.404;7.232;2023-03-20T08:05:32;12.20;;;5.83;;
2972;SDS011;1496;51.404;7.232;2023-03-20T08:07:58;11.80;;;7.33;;
2972;SDS011;1496;51.404;7.232;2023-03-20T08:10:26;13.33;;;6.33;;
2972;SDS011;1496;51.404;7.232;2023-03-20T08:12:52;13.70;;;6.57;;
2972;SDS011;1496;51.404;7.232;2023-03-20T08:15:21;9.33;;;5.97;;
2972;SDS011;1496;51.404;7.232;2023-03-20T08:17:48;12.93;;;6.20;;
2972;SDS011;1496;51.404;7.232;2023-03-20T08:20:15;9.00;;;5.40;;
2972;SDS011;1496;51.404;7.232;2023-03-20T08:22:44;12.67;;;6.10;;
2972;SDS011;1496;51.404;7.232;2023-03-20T08:25:11;10.60;;;5.70;;
2972;SDS011;1496;51.404;7.232;2023-03-20T08:27:39;11.67;;;5.10;;
2972;SDS011;1496;51.404;7.232;2023-03-20T08:30:08;12.90;;;6.63;;
2972;SDS011;1496;51.404;7.232;2023-03-20T08:32:35;10.53;;;5.70;;
2972;SDS011;1496;51.404;7.232;2023-03-20T08:35:03;7.30;;;5.30;;
2972;SDS011;1496;51.404;7.232;2023-03-20T08:37:30;11.53;;;6.07;;
2972;SDS011;1496;51.404;7.232;2023-03-20T08:39:56;28.43;;;6.80;;
2972;SDS011;1496;51.404;7.232;2023-03-20T08:42:23;15.30;;;7.27;;
2972;SDS011;1496;51.404;7.232;2023-03-20T08:44:50;13.73;;;6.40;;
2972;SDS011;1496;51.404;7.232;2023-03-20T08:47:18;10.53;;;5.97;;
2972;SDS011;1496;51.404;7.232;2023-03-20T08:49:45;14.20;;;8.10;;
2972;SDS011;1496;51.404;7.232;2023-03-20T08:52:13;11.00;;;6.37;;
2972;SDS011;1496;51.404;7.232;2023-03-20T08:54:40;11.80;;;7.23;;
2972;SDS011;1496;51.404;7.232;2023-03-20T08:57:08;13.77;;;7.67;;
2972;SDS011;1496;51.404;7.232;2023-03-20T08:59:36;17.57;;;6.70;;
2972;SDS011;1496;51.404;7.232;2023-03-20T09:02:03;12.87;;;6.57;;
2972;SDS011;1496;51.404;7.232;2023-03-20T09:04:30;9.37;;;5.90;;
2972;SDS011;1496;51.404;7.232;2023-03-20T09:06:58;13.70;;;6.80;;
2972;SDS011;1496;51.404;7.232;2023-03-20T09:09:27;13.40;;;6.70;;
2972;SDS011;1496;51.404;7.232;2023-03-20T09:11:55;13.90;;;7.30;;
2972;SDS011;1496;51.404;7.232;2023-03-20T09:14:21;15.63;;;6.70;;
2972;SDS011;1496;51.404;7.232;2023-03-20T09:16:49;13.43;;;7.40;;
2972;SDS011;1496;51.404;7.232;2023-03-20T09:19:17;9.90;;;6.30;;
2972;SDS011;1496;51.404;7.232;2023-03-20T09:21:46;10.47;;;6.73;;
2972;SDS011;1496;51.404;7.232;2023-03-20T09:24:13;14.20;;;6.33;;
2972;SDS011;1496;51.404;7.232;2023-03-20T09:26:40;13.63;;;6.37;;
2972;SDS011;1496;51.404;7.232;2023-03-20T09:29:08;12.40;;;6.50;;
2972;SDS011;1496;51.404;7.232;2023-03-20T09:31:35;11.57;;;5.60;;
2972;SDS011;1496;51.404;7.232;2023-03-20T09:34:01;12.47;;;5.93;;
2972;SDS011;1496;51.404;7.232;2023-03-20T09:36:29;8.40;;;5.23;;
2972;SDS011;1496;51.404;7.232;2023-03-20T09:38:55;11.00;;;6.30;;
2972;SDS011;1496;51.404;7.232;2023-03-20T09:41:22;10.33;;;5.83;;
2972;SDS011;1496;51.404;7.232;2023-03-20T09:44:11;9.40;;;5.70;;
2972;SDS011;1496;51.404;7.232;2023-03-20T09:49:56;8.03;;;5.17;;
2972;SDS011;1496;51.404;7.232;2023-03-20T09:52:39;9.97;;;5.30;;
2972;SDS011;1496;51.404;7.232;2023-03-20T09:55:21;11.97;;;4.60;;
2972;SDS011;1496;51.404;7.232;2023-03-20T09:57:54;8.97;;;5.40;;
2972;SDS011;1496;51.404;7.232;2023-03-20T10:00:26;9.53;;;4.97;;
2972;SDS011;1496;51.404;7.232;2023-03-20T10:02:57;9.50;;;5.73;;
2972;SDS011;1496;51.404;7.232;2023-03-20T10:08:05;9.70;;;4.97;;
2972;SDS011;1496;51.404;7.232;2023-03-20T10:11:29;6.43;;;4.43;;
2972;SDS011;1496;51.404;7.232;2023-03-20T10:16:44;9.53;;;4.10;;
2972;SDS011;1496;51.404;7.232;2023-03-20T10:19:21;7.73;;;5.23;;
2972;SDS011;1496;51.404;7.232;2023-03-20T10:21:58;6.70;;;3.87;;
2972;SDS011;1496;51.404;7.232;2023-03-20T10:24:37;15.63;;;4.60;;
2972;SDS011;1496;51.404;7.232;2023-03-20T10:27:21;6.63;;;4.30;;
2972;SDS011;1496;51.404;7.232;2023-03-20T10:30:06;12.40;;;5.50;;
2972;SDS011;1496;51.404;7.232;2023-03-20T10:41:50;7.67;;;3.10;;
2972;SDS011;1496;51.404;7.232;2023-03-20T10:44:25;8.70;;;3.67;;
2972;SDS011;1496;51.404;7.232;2023-03-20T10:47:04;11.53;;;3.63;;
2972;SDS011;1496;51.404;7.232;2023-03-20T10:49:38;11.20;;;4.53;;
2972;SDS011;1496;51.404;7.232;2023-03-20T10:52:12;10.67;;;4.67;;
2972;SDS011;1496;51.404;7.232;2023-03-20T10:54:44;7.93;;;3.17;;
2972;SDS011;1496;51.404;7.232;2023-03-20T10:57:21;7.27;;;2.80;;
2972;SDS011;1496;51.404;7.232;2023-03-20T10:59:51;4.77;;;2.80;;
2972;SDS011;1496;51.404;7.232;2023-03-20T11:02:21;5.90;;;3.30;;
2972;SDS011;1496;51.404;7.232;2023-03-20T11:04:53;7.23;;;2.93;;
2972;SDS011;1496;51.404;7.232;2023-03-20T11:07:25;8.67;;;2.83;;
2972;SDS011;1496;51.404;7.232;2023-03-20T11:12:46;4.30;;;2.63;;
2972;SDS011;1496;51.404;7.232;2023-03-20T11:15:20;16.57;;;3.07;;
2972;SDS011;1496;51.404;7.232;2023-03-20T11:18:01;6.80;;;3.00;;
2972;SDS011;1496;51.404;7.232;2023-03-20T11:20:31;5.03;;;2.70;;
2972;SDS011;1496;51.404;7.232;2023-03-20T11:23:03;5.57;;;3.43;;
2972;SDS011;1496;51.404;7.232;2023-03-20T11:25:38;5.43;;;2.87;;
2972;SDS011;1496;51.404;7.232;2023-03-20T11:28:17;6.20;;;2.60;;
2972;SDS011;1496;51.404;7.232;2023-03-20T11:31:45;4.80;;;2.43;;
2972;SDS011;1496;51.404;7.232;2023-03-20T11:34:13;15.10;;;2.77;;
2972;SDS011;1496;51.404;7.232;2023-03-20T11:39:27;5.47;;;2.27;;
2972;SDS011;1496;51.404;7.232;2023-03-20T11:41:58;4.13;;;2.37;;
2972;SDS011;1496;51.404;7.232;2023-03-20T11:44:27;16.20;;;2.40;;
2972;SDS011;1496;51.404;7.232;2023-03-20T11:49:23;4.53;;;2.40;;
2972;SDS011;1496;51.404;7.232;2023-03-20T11:51:52;8.17;;;2.43;;
2972;SDS011;1496;51.404;7.232;2023-03-20T11:54:23;4.80;;;2.80;;
2972;SDS011;1496;51.404;7.232;2023-03-20T11:56:55;4.20;;;2.57;;
2972;SDS011;1496;51.404;7.232;2023-03-20T11:59:33;4.00;;;2.50;;
2972;SDS011;1496;51.404;7.232;2023-03-20T12:02:03;4.23;;;2.30;;
2972;SDS011;1496;51.404;7.232;2023-03-20T12:04:42;8.73;;;2.90;;
2972;SDS011;1496;51.404;7.232;2023-03-20T12:07:16;4.70;;;2.37;;
2972;SDS011;1496;51.404;7.232;2023-03-20T12:12:39;4.17;;;2.27;;
2972;SDS011;1496;51.404;7.232;2023-03-20T12:15:26;7.37;;;2.27;;
2972;SDS011;1496;51.404;7.232;2023-03-20T12:26:24;7.27;;;3.10;;
2972;SDS011;1496;51.404;7.232;2023-03-20T12:29:04;8.83;;;3.40;;
2972;SDS011;1496;51.404;7.232;2023-03-20T12:37:04;6.87;;;3.23;;
2972;SDS011;1496;51.404;7.232;2023-03-20T12:39:37;5.97;;;2.73;;
2972;SDS011;1496;51.404;7.232;2023-03-20T12:42:15;8.40;;;3.57;;
2972;SDS011;1496;51.404;7.232;2023-03-20T12:46:06;8.87;;;3.33;;
2972;SDS011;1496;51.404;7.232;2023-03-20T12:59:25;5.93;;;3.40;;
2972;SDS011;1496;51.404;7.232;2023-03-20T13:02:16;7.23;;;2.63;;
2972;SDS011;1496;51.404;7.232;2023-03-20T13:07:46;5.63;;;2.97;;
2972;SDS011;1496;51.404;7.232;2023-03-20T13:16:27;7.03;;;3.43;;
2972;SDS011;1496;51.404;7.232;2023-03-20T13:19:16;4.60;;;3.20;;
2972;SDS011;1496;51.404;7.232;2023-03-20T13:21:52;5.37;;;2.90;;
2972;SDS011;1496;51.404;7.232;2023-03-20T13:27:30;5.23;;;2.33;;
2972;SDS011;1496;51.404;7.232;2023-03-20T13:38:29;4.37;;;1.90;;
2972;SDS011;1496;51.404;7.232;2023-03-20T13:41:00;7.20;;;1.80;;
2972;SDS011;1496;51.404;7.232;2023-03-20T13:48:45;5.50;;;2.50;;
2972;SDS011;1496;51.404;7.232;2023-03-20T13:53:51;7.10;;;3.70;;
2972;SDS011;1496;51.404;7.232;2023-03-20T14:04:29;5.70;;;3.00;;
2972;SDS011;1496;51.404;7.232;2023-03-20T14:06:57;6.00;;;3.43;;
2972;SDS011;1496;51.404;7.232;2023-03-20T14:09:42;8.30;;;3.30;;
2972;SDS011;1496;51.404;7.232;2023-03-20T14:12:09;6.40;;;2.50;;
2972;SDS011;1496;51.404;7.232;2023-03-20T14:14:56;4.93;;;2.60;;
2972;SDS011;1496;51.404;7.232;2023-03-20T14:17:26;9.10;;;3.50;;
2972;SDS011;1496;51.404;7.232;2023-03-20T14:19:55;4.80;;;2.90;;
2972;SDS011;1496;51.404;7.232;2023-03-20T14:22:35;5.37;;;2.70;;
2972;SDS011;1496;51.404;7.232;2023-03-20T14:25:16;5.03;;;3.30;;
2972;SDS011;1496;51.404;7.232;2023-03-20T14:28:23;7.03;;;3.50;;
2972;SDS011;1496;51.404;7.232;2023-03-20T14:38:34;7.37;;;2.73;;
2972;SDS011;1496;51.404;7.232;2023-03-20T14:41:56;18.80;;;3.17;;
2972;SDS011;1496;51.404;7.232;2023-03-20T14:53:34;10.00;;;2.70;;
2972;SDS011;1496;51.404;7.232;2023-03-20T14:55:49;4.20;;;2.63;;
2972;SDS011;1496;51.404;7.232;2023-03-20T15:00:59;6.60;;;3.50;;
2972;SDS011;1496;51.404;7.232;2023-03-20T15:03:30;8.90;;;3.90;;
2972;SDS011;1496;51.404;7.232;2023-03-20T15:06:00;6.37;;;2.87;;
2972;SDS011;1496;51.404;7.232;2023-03-20T15:08:31;13.43;;;3.63;;
2972;SDS011;1496;51.404;7.232;2023-03-20T15:11:04;10.53;;;3.67;;
2972;SDS011;1496;51.404;7.232;2023-03-20T15:13:34;8.07;;;3.43;;
2972;SDS011;1496;51.404;7.232;2023-03-20T15:16:03;6.43;;;3.70;;
2972;SDS011;1496;51.404;7.232;2023-03-20T15:18:36;5.33;;;3.57;;
2972;SDS011;1496;51.404;7.232;2023-03-20T15:21:26;11.23;;;4.47;;
2972;SDS011;1496;51.404;7.232;2023-03-20T15:23:57;5.77;;;4.03;;
2972;SDS011;1496;51.404;7.232;2023-03-20T15:26:27;7.07;;;3.33;;
2972;SDS011;1496;51.404;7.232;2023-03-20T15:29:06;7.60;;;4.20;;
2972;SDS011;1496;51.404;7.232;2023-03-20T15:31:37;5.70;;;4.10;;
2972;SDS011;1496;51.404;7.232;2023-03-20T15:34:06;7.57;;;4.90;;
2972;SDS011;1496;51.404;7.232;2023-03-20T15:36:38;9.77;;;4.67;;
2972;SDS011;1496;51.404;7.232;2023-03-20T15:39:12;10.93;;;4.67;;
2972;SDS011;1496;51.404;7.232;2023-03-20T15:41:58;5.63;;;4.10;;
2972;SDS011;1496;51.404;7.232;2023-03-20T15:44:36;7.60;;;4.10;;
2972;SDS011;1496;51.404;7.232;2023-03-20T15:47:06;7.80;;;4.07;;
2972;SDS011;1496;51.404;7.232;2023-03-20T15:49:41;10.53;;;4.07;;
2972;SDS011;1496;51.404;7.232;2023-03-20T15:54:57;11.17;;;4.43;;
2972;SDS011;1496;51.404;7.232;2023-03-20T15:57:32;8.87;;;4.80;;
2972;SDS011;1496;51.404;7.232;2023-03-20T16:00:05;14.50;;;4.60;;
2972;SDS011;1496;51.404;7.232;2023-03-20T16:02:37;9.73;;;5.47;;
2972;SDS011;1496;51.404;7.232;2023-03-20T16:05:07;8.13;;;4.47;;
2972;SDS011;1496;51.404;7.232;2023-03-20T16:07:38;7.67;;;4.60;;
2972;SDS011;1496;51.404;7.232;2023-03-20T16:10:14;9.57;;;4.63;;
2972;SDS011;1496;51.404;7.232;2023-03-20T16:12:47;15.13;;;4.30;;
2972;SDS011;1496;51.404;7.232;2023-03-20T16:15:16;8.20;;;4.93;;
2972;SDS011;1496;51.404;7.232;2023-03-20T16:17:44;12.93;;;4.83;;
2972;SDS011;1496;51.404;7.232;2023-03-20T16:20:14;8.13;;;4.40;;
2972;SDS011;1496;51.404;7.232;2023-03-20T16:22:44;9.17;;;4.80;;
2972;SDS011;1496;51.404;7.232;2023-03-20T16:25:12;12.80;;;4.27;;
2972;SDS011;1496;51.404;7.232;2023-03-20T16:27:41;7.40;;;3.83;;
2972;SDS011;1496;51.404;7.232;2023-03-20T16:30:15;12.53;;;4.27;;
2972;SDS011;1496;51.404;7.232;2023-03-20T16:32:57;8.37;;;3.93;;
2972;SDS011;1496;51.404;7.232;2023-03-20T16:35:37;6.47;;;3.43;;
2972;SDS011;1496;51.404;7.232;2023-03-20T16:38:15;8.50;;;3.93;;
2972;SDS011;1496;51.404;7.232;2023-03-20T16:40:54;11.40;;;4.80;;
2972;SDS011;1496;51.404;7.232;2023-03-20T16:43:25;8.37;;;3.90;;
2972;SDS011;1496;51.404;7.232;2023-03-20T16:45:56;11.67;;;3.87;;
2972;SDS011;1496;51.404;7.232;2023-03-20T16:48:30;5.97;;;4.23;;
2972;SDS011;1496;51.404;7.232;2023-03-20T16:51:21;7.90;;;4.03;;
2972;SDS011;1496;51.404;7.232;2023-03-20T16:53:54;6.53;;;3.57;;
2972;SDS011;1496;51.404;7.232;2023-03-20T16:56:33;7.73;;;3.90;;
2972;SDS011;1496;51.404;7.232;2023-03-20T16:59:09;8.43;;;4.07;;
2972;SDS011;1496;51.404;7.232;2023-03-20T17:01:44;8.77;;;4.63;;
2972;SDS011;1496;51.404;7.232;2023-03-20T17:06:49;8.93;;;3.70;;
2972;SDS011;1496;51.404;7.232;2023-03-20T17:09:19;10.57;;;3.90;;
2972;SDS011;1496;51.404;7.232;2023-03-20T17:11:50;5.30;;;3.33;;
2972;SDS011;1496;51.404;7.232;2023-03-20T17:14:40;8.33;;;5.00;;
2972;SDS011;1496;51.404;7.232;2023-03-20T17:17:13;10.63;;;3.90;;
2972;SDS011;1496;51.404;7.232;2023-03-20T17:19:41;6.90;;;3.63;;
2972;SDS011;1496;51.404;7.232;2023-03-20T17:22:16;7.60;;;3.37;;
2972;SDS011;1496;51.404;7.232;2023-03-20T17:24:42;10.33;;;3.63;;
2972;SDS011;1496;51.404;7.232;2023-03-20T17:27:10;5.93;;;3.23;;
2972;SDS011;1496;51.404;7.232;2023-03-20T17:29:37;11.53;;;4.23;;
2972;SDS011;1496;51.404;7.232;2023-03-20T17:32:11;7.77;;;3.87;;
2972;SDS011;1496;51.404;7.232;2023-03-20T17:34:39;12.30;;;4.30;;
2972;SDS011;1496;51.404;7.232;2023-03-20T17:37:08;7.40;;;3.80;;
2972;SDS011;1496;51.404;7.232;2023-03-20T17:39:41;4.80;;;3.50;;
2972;SDS011;1496;51.404;7.232;2023-03-20T17:42:15;13.90;;;4.00;;
2972;SDS011;1496;51.404;7.232;2023-03-20T17:44:45;13.30;;;4.30;;
2972;SDS011;1496;51.404;7.232;2023-03-20T17:47:17;12.20;;;4.27;;
2972;SDS011;1496;51.404;7.232;2023-03-20T17:49:45;8.83;;;3.60;;
2972;SDS011;1496;51.404;7.232;2023-03-20T17:52:14;6.30;;;3.47;;
2972;SDS011;1496;51.404;7.232;2023-03-20T17:54:43;10.73;;;3.87;;
2972;SDS011;1496;51.404;7.232;2023-03-20T17:57:15;12.63;;;4.00;;
2972;SDS011;1496;51.404;7.232;2023-03-20T17:59:50;9.70;;;4.33;;
2972;SDS011;1496;51.404;7.232;2023-03-20T18:02:17;12.73;;;3.90;;
2972;SDS011;1496;51.404;7.232;2023-03-20T18:04:44;15.80;;;3.40;;
2972;SDS011;1496;51.404;7.232;2023-03-20T18:07:11;10.33;;;3.70;;